Terminal Aerodrome Forecast
Issued by NWS

Home | Current Version | Previous Version | Text Only | Print | Product List | Glossary On
Versions: 1 2 3 4 5 6 7 8 9 10 11 12 13 14 15 16 17 18 19
000
FTUS46 KPDT 251700
TAFRDM
TAF
KRDM 251739Z 2518/2618 20018G30KT P6SM VCSH OVC060
     FM260000 22022G32KT P6SM -SHRA BKN030 OVC060
     FM260800 22018G25KT P6SM BKN060 BKN120
     FM261200 22012KT P6SM BKN080=

USA.gov is the U.S. government's official web portal to all federal, state and local government web resources and services.